sensor_id;sensor_type;location;lat;lon;timestamp;temperature;humidity
5924;DHT22;2987;50.884;14.818;2023-06-24T00:02:16;15.10;99.90
5924;DHT22;2987;50.884;14.818;2023-06-24T00:04:42;15.10;99.90
5924;DHT22;2987;50.884;14.818;2023-06-24T00:07:08;15.10;99.90
5924;DHT22;2987;50.884;14.818;2023-06-24T00:09:34;15.10;99.90
5924;DHT22;2987;50.884;14.818;2023-06-24T00:12:02;15.00;99.90
5924;DHT22;2987;50.884;14.818;2023-06-24T00:14:29;15.00;99.90
5924;DHT22;2987;50.884;14.818;2023-06-24T00:16:55;15.00;99.90
5924;DHT22;2987;50.884;14.818;2023-06-24T00:19:24;14.90;99.90
5924;DHT22;2987;50.884;14.818;2023-06-24T00:21:52;15.00;99.90
5924;DHT22;2987;50.884;14.818;2023-06-24T00:24:20;15.00;99.90
5924;DHT22;2987;50.884;14.818;2023-06-24T00:26:52;14.90;99.90
5924;DHT22;2987;50.884;14.818;2023-06-24T00:29:18;14.90;99.90
5924;DHT22;2987;50.884;14.818;2023-06-24T00:31:45;14.90;99.90
5924;DHT22;2987;50.884;14.818;2023-06-24T00:34:11;14.90;99.90
5924;DHT22;2987;50.884;14.818;2023-06-24T00:36:37;14.90;99.90
5924;DHT22;2987;50.884;14.818;2023-06-24T00:39:04;14.90;99.90
5924;DHT22;2987;50.884;14.818;2023-06-24T00:41:32;14.90;99.90
5924;DHT22;2987;50.884;14.818;2023-06-24T00:43:58;14.90;99.90
5924;DHT22;2987;50.884;14.818;2023-06-24T00:46:26;14.90;99.90
5924;DHT22;2987;50.884;14.818;2023-06-24T00:48:56;14.90;99.90
5924;DHT22;2987;50.884;14.818;2023-06-24T00:51:25;14.90;99.90
5924;DHT22;2987;50.884;14.818;2023-06-24T00:53:52;14.90;99.90
5924;DHT22;2987;50.884;14.818;2023-06-24T00:56:21;14.90;99.90
5924;DHT22;2987;50.884;14.818;2023-06-24T00:58:48;14.80;99.90
5924;DHT22;2987;50.884;14.818;2023-06-24T01:01:16;14.80;99.90
5924;DHT22;2987;50.884;14.818;2023-06-24T01:03:43;14.80;99.90
5924;DHT22;2987;50.884;14.818;2023-06-24T01:06:09;14.80;99.90
5924;DHT22;2987;50.884;14.818;2023-06-24T01:08:36;14.80;99.90
5924;DHT22;2987;50.884;14.818;2023-06-24T01:11:02;14.80;99.90
5924;DHT22;2987;50.884;14.818;2023-06-24T01:13:28;14.80;99.90
5924;DHT22;2987;50.884;14.818;2023-06-24T01:15:54;14.80;99.90
5924;DHT22;2987;50.884;14.818;2023-06-24T01:18:29;14.80;99.90
5924;DHT22;2987;50.884;14.818;2023-06-24T01:21:03;14.80;99.90
5924;DHT22;2987;50.884;14.818;2023-06-24T01:23:57;14.80;99.90
5924;DHT22;2987;50.884;14.818;2023-06-24T01:26:42;14.80;99.90
5924;DHT22;2987;50.884;14.818;2023-06-24T01:34:59;14.80;99.90
5924;DHT22;2987;50.884;14.818;2023-06-24T01:40:10;14.70;99.90
5924;DHT22;2987;50.884;14.818;2023-06-24T01:42:41;14.70;99.90
5924;DHT22;2987;50.884;14.818;2023-06-24T01:45:19;14.60;99.90
5924;DHT22;2987;50.884;14.818;2023-06-24T01:47:48;14.60;99.90
5924;DHT22;2987;50.884;14.818;2023-06-24T01:50:21;14.60;99.90
5924;DHT22;2987;50.884;14.818;2023-06-24T01:52:51;14.60;99.90
5924;DHT22;2987;50.884;14.818;2023-06-24T01:55:20;14.50;99.90
5924;DHT22;2987;50.884;14.818;2023-06-24T01:57:49;14.50;99.90
5924;DHT22;2987;50.884;14.818;2023-06-24T02:00:16;14.50;99.90
5924;DHT22;2987;50.884;14.818;2023-06-24T02:02:50;14.50;99.90
5924;DHT22;2987;50.884;14.818;2023-06-24T02:05:18;14.50;99.90
5924;DHT22;2987;50.884;14.818;2023-06-24T02:07:46;14.60;99.90
5924;DHT22;2987;50.884;14.818;2023-06-24T02:10:14;14.60;99.90
5924;DHT22;2987;50.884;14.818;2023-06-24T02:12:41;14.60;99.90
5924;DHT22;2987;50.884;14.818;2023-06-24T02:15:08;14.60;99.90
5924;DHT22;2987;50.884;14.818;2023-06-24T02:17:35;14.50;99.90
5924;DHT22;2987;50.884;14.818;2023-06-24T02:20:06;14.50;99.90
5924;DHT22;2987;50.884;14.818;2023-06-24T02:22:35;14.60;99.90
5924;DHT22;2987;50.884;14.818;2023-06-24T02:25:02;14.60;99.90
5924;DHT22;2987;50.884;14.818;2023-06-24T02:27:30;14.60;99.90
5924;DHT22;2987;50.884;14.818;2023-06-24T02:29:57;14.60;99.90
5924;DHT22;2987;50.884;14.818;2023-06-24T02:32:25;14.60;99.90
5924;DHT22;2987;50.884;14.818;2023-06-24T02:34:52;14.60;99.90
5924;DHT22;2987;50.884;14.818;2023-06-24T02:37:18;14.70;99.90
5924;DHT22;2987;50.884;14.818;2023-06-24T02:39:45;14.70;99.90
5924;DHT22;2987;50.884;14.818;2023-06-24T02:42:11;14.70;99.90
5924;DHT22;2987;50.884;14.818;2023-06-24T02:44:39;14.70;99.90
5924;DHT22;2987;50.884;14.818;2023-06-24T02:47:09;14.70;99.90
5924;DHT22;2987;50.884;14.818;2023-06-24T02:49:37;14.70;99.90
5924;DHT22;2987;50.884;14.818;2023-06-24T02:52:05;14.70;99.90
5924;DHT22;2987;50.884;14.818;2023-06-24T02:54:33;14.70;99.90
5924;DHT22;2987;50.884;14.818;2023-06-24T02:57:19;14.70;99.90
5924;DHT22;2987;50.884;14.818;2023-06-24T02:59:49;14.70;99.90
5924;DHT22;2987;50.884;14.818;2023-06-24T03:02:16;14.70;99.90
5924;DHT22;2987;50.884;14.818;2023-06-24T03:04:42;14.70;99.90
5924;DHT22;2987;50.884;14.818;2023-06-24T03:07:10;14.70;99.90
5924;DHT22;2987;50.884;14.818;2023-06-24T03:09:39;14.60;99.90
5924;DHT22;2987;50.884;14.818;2023-06-24T03:12:06;14.60;99.90
5924;DHT22;2987;50.884;14.818;2023-06-24T03:17:06;14.60;99.90
5924;DHT22;2987;50.884;14.818;2023-06-24T03:19:32;14.70;99.90
5924;DHT22;2987;50.884;14.818;2023-06-24T03:21:58;14.60;99.90
5924;DHT22;2987;50.884;14.818;2023-06-24T03:24:24;14.70;99.90
5924;DHT22;2987;50.884;14.818;2023-06-24T03:26:52;14.70;99.90
5924;DHT22;2987;50.884;14.818;2023-06-24T03:29:25;14.70;99.90
5924;DHT22;2987;50.884;14.818;2023-06-24T03:31:59;14.70;99.90
5924;DHT22;2987;50.884;14.818;2023-06-24T03:34:26;14.70;99.90
5924;DHT22;2987;50.884;14.818;2023-06-24T03:39:20;14.70;99.90
5924;DHT22;2987;50.884;14.818;2023-06-24T03:41:47;14.70;99.90
5924;DHT22;2987;50.884;14.818;2023-06-24T03:44:15;14.80;99.90
5924;DHT22;2987;50.884;14.818;2023-06-24T03:46:41;14.80;99.90
5924;DHT22;2987;50.884;14.818;2023-06-24T03:49:09;14.80;99.90
5924;DHT22;2987;50.884;14.818;2023-06-24T03:51:36;14.90;99.90
5924;DHT22;2987;50.884;14.818;2023-06-24T03:54:03;14.80;99.90
5924;DHT22;2987;50.884;14.818;2023-06-24T03:56:29;14.90;99.90
5924;DHT22;2987;50.884;14.818;2023-06-24T03:58:55;14.90;99.90
5924;DHT22;2987;50.884;14.818;2023-06-24T04:01:22;14.90;99.90
5924;DHT22;2987;50.884;14.818;2023-06-24T04:03:49;14.90;99.90
5924;DHT22;2987;50.884;14.818;2023-06-24T04:06:15;14.90;99.90
5924;DHT22;2987;50.884;14.818;2023-06-24T04:08:41;14.90;99.90
5924;DHT22;2987;50.884;14.818;2023-06-24T04:11:09;14.90;99.90
5924;DHT22;2987;50.884;14.818;2023-06-24T04:13:35;15.00;99.90
5924;DHT22;2987;50.884;14.818;2023-06-24T04:16:01;15.00;99.90
5924;DHT22;2987;50.884;14.818;2023-06-24T04:18:27;15.00;99.90
5924;DHT22;2987;50.884;14.818;2023-06-24T04:20:54;15.10;99.90
5924;DHT22;2987;50.884;14.818;2023-06-24T04:23:20;15.10;99.90
5924;DHT22;2987;50.884;14.818;2023-06-24T04:25:46;15.10;99.90
5924;DHT22;2987;50.884;14.818;2023-06-24T04:28:12;15.20;99.90
5924;DHT22;2987;50.884;14.818;2023-06-24T04:30:38;15.20;99.90
5924;DHT22;2987;50.884;14.818;2023-06-24T04:33:05;15.20;99.90
5924;DHT22;2987;50.884;14.818;2023-06-24T04:35:31;15.20;99.90
5924;DHT22;2987;50.884;14.818;2023-06-24T04:37:57;15.20;99.90
5924;DHT22;2987;50.884;14.818;2023-06-24T04:40:24;15.30;99.90
5924;DHT22;2987;50.884;14.818;2023-06-24T04:42:50;15.40;99.90
5924;DHT22;2987;50.884;14.818;2023-06-24T04:45:15;15.40;99.90
5924;DHT22;2987;50.884;14.818;2023-06-24T04:47:42;15.40;99.90
5924;DHT22;2987;50.884;14.818;2023-06-24T04:50:08;15.50;99.90
5924;DHT22;2987;50.884;14.818;2023-06-24T04:52:36;15.60;99.90
5924;DHT22;2987;50.884;14.818;2023-06-24T04:55:02;15.60;99.90
5924;DHT22;2987;50.884;14.818;2023-06-24T04:57:30;15.60;99.90
5924;DHT22;2987;50.884;14.818;2023-06-24T04:59:56;15.70;99.90
5924;DHT22;2987;50.884;14.818;2023-06-24T05:02:23;15.70;99.90
5924;DHT22;2987;50.884;14.818;2023-06-24T05:04:51;15.70;99.90
5924;DHT22;2987;50.884;14.818;2023-06-24T05:07:17;15.80;99.90
5924;DHT22;2987;50.884;14.818;2023-06-24T05:09:43;15.80;99.90
5924;DHT22;2987;50.884;14.818;2023-06-24T05:12:09;15.80;99.90
5924;DHT22;2987;50.884;14.818;2023-06-24T05:14:36;15.90;99.90
5924;DHT22;2987;50.884;14.818;2023-06-24T05:17:03;15.90;99.90
5924;DHT22;2987;50.884;14.818;2023-06-24T05:21:55;15.90;99.90
5924;DHT22;2987;50.884;14.818;2023-06-24T05:24:21;16.00;99.90
5924;DHT22;2987;50.884;14.818;2023-06-24T05:26:49;16.10;99.90
5924;DHT22;2987;50.884;14.818;2023-06-24T05:29:16;16.10;99.90
5924;DHT22;2987;50.884;14.818;2023-06-24T05:31:42;16.10;99.90
5924;DHT22;2987;50.884;14.818;2023-06-24T05:34:08;16.20;99.90
5924;DHT22;2987;50.884;14.818;2023-06-24T05:36:34;16.30;99.90
5924;DHT22;2987;50.884;14.818;2023-06-24T05:39:00;16.40;99.90
5924;DHT22;2987;50.884;14.818;2023-06-24T05:41:26;16.50;99.90
5924;DHT22;2987;50.884;14.818;2023-06-24T05:44:08;16.60;99.90
5924;DHT22;2987;50.884;14.818;2023-06-24T05:49:02;16.70;99.90
5924;DHT22;2987;50.884;14.818;2023-06-24T05:51:28;16.80;99.90
5924;DHT22;2987;50.884;14.818;2023-06-24T05:53:54;16.90;99.90
5924;DHT22;2987;50.884;14.818;2023-06-24T05:56:21;16.90;99.90
5924;DHT22;2987;50.884;14.818;2023-06-24T05:58:49;17.00;99.90
5924;DHT22;2987;50.884;14.818;2023-06-24T06:01:15;17.10;99.90
5924;DHT22;2987;50.884;14.818;2023-06-24T06:03:41;17.30;99.90
5924;DHT22;2987;50.884;14.818;2023-06-24T06:06:07;17.20;99.90
5924;DHT22;2987;50.884;14.818;2023-06-24T06:08:33;17.30;99.90
5924;DHT22;2987;50.884;14.818;2023-06-24T06:11:00;17.40;99.90
5924;DHT22;2987;50.884;14.818;2023-06-24T06:13:28;17.50;99.90
5924;DHT22;2987;50.884;14.818;2023-06-24T06:15:56;17.60;99.90
5924;DHT22;2987;50.884;14.818;2023-06-24T06:18:22;17.60;99.90
5924;DHT22;2987;50.884;14.818;2023-06-24T06:20:48;17.70;99.90
5924;DHT22;2987;50.884;14.818;2023-06-24T06:23:15;17.60;99.90
5924;DHT22;2987;50.884;14.818;2023-06-24T06:25:42;17.70;99.90
5924;DHT22;2987;50.884;14.818;2023-06-24T06:28:08;17.70;99.90
5924;DHT22;2987;50.884;14.818;2023-06-24T06:30:34;17.60;99.90
5924;DHT22;2987;50.884;14.818;2023-06-24T06:33:00;17.70;99.90
5924;DHT22;2987;50.884;14.818;2023-06-24T06:35:26;17.80;99.90
5924;DHT22;2987;50.884;14.818;2023-06-24T06:37:52;17.90;99.90
5924;DHT22;2987;50.884;14.818;2023-06-24T06:40:21;17.90;99.90
5924;DHT22;2987;50.884;14.818;2023-06-24T06:42:47;18.00;99.90
5924;DHT22;2987;50.884;14.818;2023-06-24T06:45:13;18.10;99.90
5924;DHT22;2987;50.884;14.818;2023-06-24T06:47:39;18.30;99.90
5924;DHT22;2987;50.884;14.818;2023-06-24T06:50:06;18.60;99.90
5924;DHT22;2987;50.884;14.818;2023-06-24T06:52:33;19.10;99.90
5924;DHT22;2987;50.884;14.818;2023-06-24T06:54:59;19.50;99.90
5924;DHT22;2987;50.884;14.818;2023-06-24T06:57:25;20.20;99.90
5924;DHT22;2987;50.884;14.818;2023-06-24T06:59:52;20.50;99.90
5924;DHT22;2987;50.884;14.818;2023-06-24T07:02:18;20.70;99.90
5924;DHT22;2987;50.884;14.818;2023-06-24T07:04:45;21.00;99.90
5924;DHT22;2987;50.884;14.818;2023-06-24T07:07:13;21.20;99.90
5924;DHT22;2987;50.884;14.818;2023-06-24T07:09:39;21.40;99.90
5924;DHT22;2987;50.884;14.818;2023-06-24T07:12:06;21.30;99.90
5924;DHT22;2987;50.884;14.818;2023-06-24T07:14:32;21.30;99.90
5924;DHT22;2987;50.884;14.818;2023-06-24T07:16:58;21.20;99.90
5924;DHT22;2987;50.884;14.818;2023-06-24T07:19:24;21.20;99.90
5924;DHT22;2987;50.884;14.818;2023-06-24T07:21:50;21.20;99.90
5924;DHT22;2987;50.884;14.818;2023-06-24T07:24:16;21.00;99.90
5924;DHT22;2987;50.884;14.818;2023-06-24T07:26:42;20.80;99.90
5924;DHT22;2987;50.884;14.818;2023-06-24T07:29:08;20.70;99.90
5924;DHT22;2987;50.884;14.818;2023-06-24T07:31:35;20.60;99.90
5924;DHT22;2987;50.884;14.818;2023-06-24T07:34:02;20.50;99.90
5924;DHT22;2987;50.884;14.818;2023-06-24T07:36:28;20.30;99.90
5924;DHT22;2987;50.884;14.818;2023-06-24T07:38:54;20.40;99.90
5924;DHT22;2987;50.884;14.818;2023-06-24T07:41:20;20.60;99.90
5924;DHT22;2987;50.884;14.818;2023-06-24T07:43:46;21.00;99.90
5924;DHT22;2987;50.884;14.818;2023-06-24T07:46:12;21.40;99.90
5924;DHT22;2987;50.884;14.818;2023-06-24T07:48:37;21.30;99.90
5924;DHT22;2987;50.884;14.818;2023-06-24T07:51:03;21.30;99.90
5924;DHT22;2987;50.884;14.818;2023-06-24T07:53:29;21.20;99.90
5924;DHT22;2987;50.884;14.818;2023-06-24T07:55:55;21.40;99.90
5924;DHT22;2987;50.884;14.818;2023-06-24T07:58:21;21.90;99.90
5924;DHT22;2987;50.884;14.818;2023-06-24T08:00:47;22.40;99.90
5924;DHT22;2987;50.884;14.818;2023-06-24T08:03:13;23.10;99.90
5924;DHT22;2987;50.884;14.818;2023-06-24T08:05:39;23.50;99.90
5924;DHT22;2987;50.884;14.818;2023-06-24T08:08:06;23.60;99.90
5924;DHT22;2987;50.884;14.818;2023-06-24T08:10:32;23.50;99.90
5924;DHT22;2987;50.884;14.818;2023-06-24T08:12:58;23.50;99.90
5924;DHT22;2987;50.884;14.818;2023-06-24T08:15:24;23.20;99.90
5924;DHT22;2987;50.884;14.818;2023-06-24T08:17:52;22.90;99.90
5924;DHT22;2987;50.884;14.818;2023-06-24T08:20:20;22.70;99.90
5924;DHT22;2987;50.884;14.818;2023-06-24T08:22:46;22.50;99.90
5924;DHT22;2987;50.884;14.818;2023-06-24T08:25:12;22.60;99.90
5924;DHT22;2987;50.884;14.818;2023-06-24T08:27:38;22.70;99.90
5924;DHT22;2987;50.884;14.818;2023-06-24T08:30:06;22.90;99.90
5924;DHT22;2987;50.884;14.818;2023-06-24T08:32:32;23.10;99.90
5924;DHT22;2987;50.884;14.818;2023-06-24T08:34:58;23.30;99.90
5924;DHT22;2987;50.884;14.818;2023-06-24T08:37:24;23.50;99.90
5924;DHT22;2987;50.884;14.818;2023-06-24T08:39:50;23.80;99.90
5924;DHT22;2987;50.884;14.818;2023-06-24T08:42:16;24.00;99.90
5924;DHT22;2987;50.884;14.818;2023-06-24T08:44:42;24.30;99.90
5924;DHT22;2987;50.884;14.818;2023-06-24T08:47:08;24.40;99.90
5924;DHT22;2987;50.884;14.818;2023-06-24T08:49:40;24.30;99.90
5924;DHT22;2987;50.884;14.818;2023-06-24T08:52:13;23.70;99.90
5924;DHT22;2987;50.884;14.818;2023-06-24T08:54:41;23.40;99.90
5924;DHT22;2987;50.884;14.818;2023-06-24T08:57:07;23.40;99.90
5924;DHT22;2987;50.884;14.818;2023-06-24T08:59:36;23.60;99.90
5924;DHT22;2987;50.884;14.818;2023-06-24T09:02:02;23.80;99.90
5924;DHT22;2987;50.884;14.818;2023-06-24T09:04:28;24.20;99.90
5924;DHT22;2987;50.884;14.818;2023-06-24T09:06:54;24.40;99.90
5924;DHT22;2987;50.884;14.818;2023-06-24T09:09:21;24.40;99.90
5924;DHT22;2987;50.884;14.818;2023-06-24T09:11:53;24.20;99.90
5924;DHT22;2987;50.884;14.818;2023-06-24T09:14:19;24.30;99.90
5924;DHT22;2987;50.884;14.818;2023-06-24T09:16:54;24.40;99.90
5924;DHT22;2987;50.884;14.818;2023-06-24T09:19:23;24.80;99.90
5924;DHT22;2987;50.884;14.818;2023-06-24T09:21:50;24.70;99.90
5924;DHT22;2987;50.884;14.818;2023-06-24T09:24:18;24.50;99.90
5924;DHT22;2987;50.884;14.818;2023-06-24T09:26:44;24.40;99.90
5924;DHT22;2987;50.884;14.818;2023-06-24T09:29:12;24.50;99.90
5924;DHT22;2987;50.884;14.818;2023-06-24T09:31:48;24.40;99.90
5924;DHT22;2987;50.884;14.818;2023-06-24T09:34:14;24.30;99.90
5924;DHT22;2987;50.884;14.818;2023-06-24T09:36:43;24.50;99.90
5924;DHT22;2987;50.884;14.818;2023-06-24T09:39:10;24.50;99.90
5924;DHT22;2987;50.884;14.818;2023-06-24T09:41:36;24.30;99.90
5924;DHT22;2987;50.884;14.818;2023-06-24T09:44:08;24.10;99.90
5924;DHT22;2987;50.884;14.818;2023-06-24T09:46:37;24.00;99.90
5924;DHT22;2987;50.884;14.818;2023-06-24T09:49:04;24.00;99.90
5924;DHT22;2987;50.884;14.818;2023-06-24T09:51:34;23.80;99.90
5924;DHT22;2987;50.884;14.818;2023-06-24T09:54:05;23.70;99.90
5924;DHT22;2987;50.884;14.818;2023-06-24T09:56:34;23.70;99.90
5924;DHT22;2987;50.884;14.818;2023-06-24T09:59:02;24.00;99.90
5924;DHT22;2987;50.884;14.818;2023-06-24T10:01:30;24.00;99.90
5924;DHT22;2987;50.884;14.818;2023-06-24T10:03:58;24.20;99.90
5924;DHT22;2987;50.884;14.818;2023-06-24T10:06:26;24.40;99.90
5924;DHT22;2987;50.884;14.818;2023-06-24T10:08:52;24.70;99.90
5924;DHT22;2987;50.884;14.818;2023-06-24T10:13:45;24.60;99.90
5924;DHT22;2987;50.884;14.818;2023-06-24T10:16:11;24.30;99.90
5924;DHT22;2987;50.884;14.818;2023-06-24T10:18:38;24.10;99.90
5924;DHT22;2987;50.884;14.818;2023-06-24T10:21:05;24.00;99.90
5924;DHT22;2987;50.884;14.818;2023-06-24T10:23:41;23.80;99.90
5924;DHT22;2987;50.884;14.818;2023-06-24T10:26:09;23.70;99.90
5924;DHT22;2987;50.884;14.818;2023-06-24T10:29:11;23.70;99.90
5924;DHT22;2987;50.884;14.818;2023-06-24T10:31:54;23.80;99.90
5924;DHT22;2987;50.884;14.818;2023-06-24T10:37:02;24.20;99.90
5924;DHT22;2987;50.884;14.818;2023-06-24T10:39:50;24.50;99.90
5924;DHT22;2987;50.884;14.818;2023-06-24T10:45:13;23.90;99.90
5924;DHT22;2987;50.884;14.818;2023-06-24T10:47:43;23.60;99.90
5924;DHT22;2987;50.884;14.818;2023-06-24T10:50:11;23.30;99.90
5924;DHT22;2987;50.884;14.818;2023-06-24T10:52:39;23.40;99.90
5924;DHT22;2987;50.884;14.818;2023-06-24T10:55:06;23.50;99.90
5924;DHT22;2987;50.884;14.818;2023-06-24T10:57:33;23.90;99.90
5924;DHT22;2987;50.884;14.818;2023-06-24T11:00:01;24.00;99.90
5924;DHT22;2987;50.884;14.818;2023-06-24T11:02:30;24.00;99.90
5924;DHT22;2987;50.884;14.818;2023-06-24T11:04:59;23.70;99.90
5924;DHT22;2987;50.884;14.818;2023-06-24T11:07:28;23.50;99.90
5924;DHT22;2987;50.884;14.818;2023-06-24T11:09:58;23.60;99.90
5924;DHT22;2987;50.884;14.818;2023-06-24T11:12:26;23.80;99.90
5924;DHT22;2987;50.884;14.818;2023-06-24T11:14:57;24.00;99.90
5924;DHT22;2987;50.884;14.818;2023-06-24T11:17:24;24.30;99.90
5924;DHT22;2987;50.884;14.818;2023-06-24T11:19:53;24.60;99.90
5924;DHT22;2987;50.884;14.818;2023-06-24T11:22:19;25.00;99.90
5924;DHT22;2987;50.884;14.818;2023-06-24T11:24:45;25.00;99.90
5924;DHT22;2987;50.884;14.818;2023-06-24T11:27:11;24.70;99.90
5924;DHT22;2987;50.884;14.818;2023-06-24T11:29:38;24.60;99.90
5924;DHT22;2987;50.884;14.818;2023-06-24T11:32:07;24.50;99.90
5924;DHT22;2987;50.884;14.818;2023-06-24T11:34:33;24.20;99.90
5924;DHT22;2987;50.884;14.818;2023-06-24T11:37:09;24.20;99.90
5924;DHT22;2987;50.884;14.818;2023-06-24T11:39:35;24.50;99.90
5924;DHT22;2987;50.884;14.818;2023-06-24T11:42:01;24.90;99.90
5924;DHT22;2987;50.884;14.818;2023-06-24T11:44:27;25.30;99.90
5924;DHT22;2987;50.884;14.818;2023-06-24T11:47:06;25.50;99.90
5924;DHT22;2987;50.884;14.818;2023-06-24T11:49:51;25.90;99.90
5924;DHT22;2987;50.884;14.818;2023-06-24T11:52:18;26.00;99.90
5924;DHT22;2987;50.884;14.818;2023-06-24T11:54:44;26.10;99.90
5924;DHT22;2987;50.884;14.818;2023-06-24T11:57:11;26.30;99.90
5924;DHT22;2987;50.884;14.818;2023-06-24T11:59:38;26.60;99.90
5924;DHT22;2987;50.884;14.818;2023-06-24T12:02:04;26.50;99.90
5924;DHT22;2987;50.884;14.818;2023-06-24T12:04:31;26.40;99.90
5924;DHT22;2987;50.884;14.818;2023-06-24T12:06:58;26.00;99.90
5924;DHT22;2987;50.884;14.818;2023-06-24T12:09:24;25.90;99.90
5924;DHT22;2987;50.884;14.818;2023-06-24T12:11:52;25.70;99.90
5924;DHT22;2987;50.884;14.818;2023-06-24T12:14:18;25.80;99.90
5924;DHT22;2987;50.884;14.818;2023-06-24T12:16:44;26.00;99.90
5924;DHT22;2987;50.884;14.818;2023-06-24T12:19:10;26.10;99.90
5924;DHT22;2987;50.884;14.818;2023-06-24T12:21:37;25.90;99.90
5924;DHT22;2987;50.884;14.818;2023-06-24T12:24:03;25.50;99.90
5924;DHT22;2987;50.884;14.818;2023-06-24T12:26:30;25.40;99.90
5924;DHT22;2987;50.884;14.818;2023-06-24T12:28:56;25.60;99.90
5924;DHT22;2987;50.884;14.818;2023-06-24T12:31:24;25.90;99.90
5924;DHT22;2987;50.884;14.818;2023-06-24T12:33:51;26.10;99.90
5924;DHT22;2987;50.884;14.818;2023-06-24T12:36:21;26.20;99.90
5924;DHT22;2987;50.884;14.818;2023-06-24T12:38:47;26.20;99.90
5924;DHT22;2987;50.884;14.818;2023-06-24T12:41:13;26.10;99.90
5924;DHT22;2987;50.884;14.818;2023-06-24T12:43:39;26.30;99.90
5924;DHT22;2987;50.884;14.818;2023-06-24T12:46:05;26.70;99.90
5924;DHT22;2987;50.884;14.818;2023-06-24T12:48:31;27.00;99.90
5924;DHT22;2987;50.884;14.818;2023-06-24T12:50:57;27.10;99.90
5924;DHT22;2987;50.884;14.818;2023-06-24T12:53:23;27.10;99.90
5924;DHT22;2987;50.884;14.818;2023-06-24T12:55:49;26.80;99.90
5924;DHT22;2987;50.884;14.818;2023-06-24T12:58:23;26.70;99.90
5924;DHT22;2987;50.884;14.818;2023-06-24T13:03:15;26.30;99.90
5924;DHT22;2987;50.884;14.818;2023-06-24T13:05:41;26.40;99.90
5924;DHT22;2987;50.884;14.818;2023-06-24T13:08:07;26.50;99.90
5924;DHT22;2987;50.884;14.818;2023-06-24T13:10:33;26.50;99.90
5924;DHT22;2987;50.884;14.818;2023-06-24T13:12:58;26.50;99.90
5924;DHT22;2987;50.884;14.818;2023-06-24T13:17:52;26.70;99.90
5924;DHT22;2987;50.884;14.818;2023-06-24T13:20:18;26.60;99.90
5924;DHT22;2987;50.884;14.818;2023-06-24T13:22:44;26.50;99.90
5924;DHT22;2987;50.884;14.818;2023-06-24T13:25:10;26.40;99.90
5924;DHT22;2987;50.884;14.818;2023-06-24T13:27:36;26.40;99.90
5924;DHT22;2987;50.884;14.818;2023-06-24T13:30:02;26.50;99.90
5924;DHT22;2987;50.884;14.818;2023-06-24T13:32:29;26.40;99.90
5924;DHT22;2987;50.884;14.818;2023-06-24T13:34:55;26.40;99.90
5924;DHT22;2987;50.884;14.818;2023-06-24T13:37:21;26.60;99.90
5924;DHT22;2987;50.884;14.818;2023-06-24T13:39:47;26.40;99.90
5924;DHT22;2987;50.884;14.818;2023-06-24T13:42:14;26.30;99.90
5924;DHT22;2987;50.884;14.818;2023-06-24T13:44:40;26.50;99.90
5924;DHT22;2987;50.884;14.818;2023-06-24T13:47:06;26.40;99.60
5924;DHT22;2987;50.884;14.818;2023-06-24T13:51:58;26.30;98.90
5924;DHT22;2987;50.884;14.818;2023-06-24T13:54:24;26.10;99.90
5924;DHT22;2987;50.884;14.818;2023-06-24T13:56:50;26.20;99.90
5924;DHT22;2987;50.884;14.818;2023-06-24T13:59:16;26.30;99.50
5924;DHT22;2987;50.884;14.818;2023-06-24T14:01:42;25.90;99.60
5924;DHT22;2987;50.884;14.818;2023-06-24T14:04:07;25.90;99.90
5924;DHT22;2987;50.884;14.818;2023-06-24T14:06:33;26.00;99.90
5924;DHT22;2987;50.884;14.818;2023-06-24T14:09:00;26.10;99.70
5924;DHT22;2987;50.884;14.818;2023-06-24T14:11:25;26.10;98.80
5924;DHT22;2987;50.884;14.818;2023-06-24T14:13:51;26.10;97.40
5924;DHT22;2987;50.884;14.818;2023-06-24T14:16:17;26.20;98.80
5924;DHT22;2987;50.884;14.818;2023-06-24T14:18:44;26.20;99.60
5924;DHT22;2987;50.884;14.818;2023-06-24T14:21:10;26.20;98.30
5924;DHT22;2987;50.884;14.818;2023-06-24T14:23:36;25.80;98.60
5924;DHT22;2987;50.884;14.818;2023-06-24T14:26:02;25.70;99.00
5924;DHT22;2987;50.884;14.818;2023-06-24T14:28:28;25.70;99.20
5924;DHT22;2987;50.884;14.818;2023-06-24T14:30:54;25.60;99.90
5924;DHT22;2987;50.884;14.818;2023-06-24T14:33:20;25.70;98.80
5924;DHT22;2987;50.884;14.818;2023-06-24T14:35:46;25.70;99.90
5924;DHT22;2987;50.884;14.818;2023-06-24T14:38:12;25.90;99.40
5924;DHT22;2987;50.884;14.818;2023-06-24T14:40:38;26.00;99.30
5924;DHT22;2987;50.884;14.818;2023-06-24T14:43:04;26.00;98.40
5924;DHT22;2987;50.884;14.818;2023-06-24T14:45:30;25.70;99.50
5924;DHT22;2987;50.884;14.818;2023-06-24T14:47:56;25.40;98.60
5924;DHT22;2987;50.884;14.818;2023-06-24T14:50:23;25.50;99.90
5924;DHT22;2987;50.884;14.818;2023-06-24T14:52:49;25.50;98.80
5924;DHT22;2987;50.884;14.818;2023-06-24T14:57:41;25.40;99.90
5924;DHT22;2987;50.884;14.818;2023-06-24T15:00:07;25.30;99.20
5924;DHT22;2987;50.884;14.818;2023-06-24T15:02:34;25.00;99.10
5924;DHT22;2987;50.884;14.818;2023-06-24T15:05:01;24.90;99.90
5924;DHT22;2987;50.884;14.818;2023-06-24T15:07:27;25.00;99.90
5924;DHT22;2987;50.884;14.818;2023-06-24T15:09:53;25.10;99.90
5924;DHT22;2987;50.884;14.818;2023-06-24T15:12:19;25.20;99.70
5924;DHT22;2987;50.884;14.818;2023-06-24T15:14:45;25.10;97.50
5924;DHT22;2987;50.884;14.818;2023-06-24T15:17:14;24.80;98.10
5924;DHT22;2987;50.884;14.818;2023-06-24T15:19:40;25.00;97.50
5924;DHT22;2987;50.884;14.818;2023-06-24T15:22:06;24.80;98.00
5924;DHT22;2987;50.884;14.818;2023-06-24T15:24:32;24.80;98.90
5924;DHT22;2987;50.884;14.818;2023-06-24T15:26:59;24.70;98.70
5924;DHT22;2987;50.884;14.818;2023-06-24T15:29:25;24.80;99.00
5924;DHT22;2987;50.884;14.818;2023-06-24T15:31:51;24.80;98.60
5924;DHT22;2987;50.884;14.818;2023-06-24T15:34:17;24.70;97.80
5924;DHT22;2987;50.884;14.818;2023-06-24T15:36:43;24.70;98.10
5924;DHT22;2987;50.884;14.818;2023-06-24T15:39:09;24.80;99.20
5924;DHT22;2987;50.884;14.818;2023-06-24T15:41:36;24.90;99.20
5924;DHT22;2987;50.884;14.818;2023-06-24T15:44:04;24.80;99.20
5924;DHT22;2987;50.884;14.818;2023-06-24T15:46:31;24.70;98.80
5924;DHT22;2987;50.884;14.818;2023-06-24T15:48:56;24.60;99.50
5924;DHT22;2987;50.884;14.818;2023-06-24T15:51:23;24.60;99.90
5924;DHT22;2987;50.884;14.818;2023-06-24T15:53:49;24.50;99.60
5924;DHT22;2987;50.884;14.818;2023-06-24T15:56:15;24.40;99.70
5924;DHT22;2987;50.884;14.818;2023-06-24T15:58:40;24.40;99.90
5924;DHT22;2987;50.884;14.818;2023-06-24T16:01:06;24.40;99.60
5924;DHT22;2987;50.884;14.818;2023-06-24T16:03:32;24.30;99.90
5924;DHT22;2987;50.884;14.818;2023-06-24T16:05:58;24.30;99.90
5924;DHT22;2987;50.884;14.818;2023-06-24T16:08:24;24.30;99.90
5924;DHT22;2987;50.884;14.818;2023-06-24T16:10:52;24.30;99.90
5924;DHT22;2987;50.884;14.818;2023-06-24T16:13:18;24.30;99.90
5924;DHT22;2987;50.884;14.818;2023-06-24T16:15:44;24.30;99.90
5924;DHT22;2987;50.884;14.818;2023-06-24T16:18:10;24.30;99.90
5924;DHT22;2987;50.884;14.818;2023-06-24T16:20:36;24.30;99.90
5924;DHT22;2987;50.884;14.818;2023-06-24T16:23:02;24.20;99.90